Ship Status Report: callsign WUU9657

sailwx.info

Track history (hours):
 
Tides and Currents Weather Stations Pressure Air Temp Water Temp Dewpoint Dewpoint Depression Visibility Wind Speed Wind Dir Waves Ship Positions

Callsign WUU9657 (name unknown)

Owner: INLAND MARINE SERVICE INC, HEBRON, KY. More information available from US FCC via Universal Licensing System and Coast Guard Vessel Documentation Center.

Last reported at 2017-Oct-14 12:22 UTC. Time now 2017-Oct-18 00:09 UTC.
Position N 30°25' W 091°12'.

Length 39 m; draft 2.7 m.

Type: Towing. MMSI: 367060370.

Date/timePositionNaut miles runAvg speedWind from/ knotsBaromVisibWave heightAir tempDewpointWater temp
2017-Oct-14 12:22N 30°25' W 091°12'76 1.7
2017-Oct-12 15:06N 31°40' W 091°24'1 8.4
2017-Oct-12 15:00N 31°41' W 091°24'5 8.0
2017-Oct-12 14:25N 31°46' W 091°22'3 7.5
2017-Oct-12 14:00N 31°49' W 091°21'4 7.0
2017-Oct-12 13:30N 31°51' W 091°19'4 7.6
2017-Oct-12 12:58N 31°52' W 091°14'4 7.6
2017-Oct-12 12:24N 31°56' W 091°12'3 7.3
2017-Oct-12 11:57N 31°59' W 091°10'3 7.8
2017-Oct-12 11:30N 31°59' W 091°06'4 7.8
2017-Oct-12 10:59N 32°03' W 091°03'4 7.7
2017-Oct-12 10:30N 32°06' W 091°06'2 4.0
2017-Oct-12 10:00N 32°08' W 091°06'3 6.0
2017-Oct-12 09:30N 32°07' W 091°02'4 7.4
2017-Oct-12 09:00N 32°10' W 091°00'5 9.5
2017-Oct-12 08:30N 32°15' W 090°59'4 8.2
2017-Oct-12 08:00N 32°18' W 090°55'3 5.5
2017-Oct-12 07:30N 32°21' W 090°55'4 7.3
2017-Oct-12 07:00N 32°21' W 090°59'3 6.7
2017-Oct-12 06:30N 32°24' W 090°59'4 8.0
2017-Oct-12 06:00N 32°26' W 091°04'4 7.7
2017-Oct-12 05:30N 32°29' W 091°07'3 6.7
2017-Oct-12 05:00N 32°32' W 091°06'4 7.9
2017-Oct-12 04:30N 32°36' W 091°08'4 7.8
2017-Oct-12 04:00N 32°39' W 091°09'6 6.7
2017-Oct-12 03:05N 32°44' W 091°03'1 7.0
2017-Oct-12 02:59N 32°44' W 091°04'4 7.7
2017-Oct-12 02:30N 32°44' W 091°09'2 4.7
2017-Oct-12 01:59N 32°46' W 091°10'1 1.1
2017-Oct-12 01:28N 32°47' W 091°09'  
Track history (hours):
 
Tides and Currents Weather Stations Pressure Air Temp Water Temp Dewpoint Dewpoint Depression Visibility Wind Speed Wind Dir Waves Ship Positions

Callsign WUU9657 (name unknown)

Owner: INLAND MARINE SERVICE INC, HEBRON, KY. More information available from US FCC via Universal Licensing System and Coast Guard Vessel Documentation Center.

Last reported at 2017-Oct-14 12:22 UTC. Time now 2017-Oct-18 00:09 UTC.
Position N 30°25' W 091°12'.

Length 39 m; draft 2.7 m.

Type: Towing. MMSI: 367060370.

Date/timePositionNaut miles runAvg speedWind from/ knotsBaromVisibWave heightAir tempDewpointWater temp
2017-Oct-14 12:22N 30°25' W 091°12'76 1.7
2017-Oct-12 15:06N 31°40' W 091°24'1 8.4
2017-Oct-12 15:00N 31°41' W 091°24'5 8.0
2017-Oct-12 14:25N 31°46' W 091°22'3 7.5
2017-Oct-12 14:00N 31°49' W 091°21'4 7.0
2017-Oct-12 13:30N 31°51' W 091°19'4 7.6
2017-Oct-12 12:58N 31°52' W 091°14'4 7.6
2017-Oct-12 12:24N 31°56' W 091°12'3 7.3
2017-Oct-12 11:57N 31°59' W 091°10'3 7.8
2017-Oct-12 11:30N 31°59' W 091°06'4 7.8
2017-Oct-12 10:59N 32°03' W 091°03'4 7.7
2017-Oct-12 10:30N 32°06' W 091°06'2 4.0
2017-Oct-12 10:00N 32°08' W 091°06'3 6.0
2017-Oct-12 09:30N 32°07' W 091°02'4 7.4
2017-Oct-12 09:00N 32°10' W 091°00'5 9.5
2017-Oct-12 08:30N 32°15' W 090°59'4 8.2
2017-Oct-12 08:00N 32°18' W 090°55'3 5.5
2017-Oct-12 07:30N 32°21' W 090°55'4 7.3
2017-Oct-12 07:00N 32°21' W 090°59'3 6.7
2017-Oct-12 06:30N 32°24' W 090°59'4 8.0
2017-Oct-12 06:00N 32°26' W 091°04'4 7.7
2017-Oct-12 05:30N 32°29' W 091°07'3 6.7
2017-Oct-12 05:00N 32°32' W 091°06'4 7.9
2017-Oct-12 04:30N 32°36' W 091°08'4 7.8
2017-Oct-12 04:00N 32°39' W 091°09'6 6.7
2017-Oct-12 03:05N 32°44' W 091°03'1 7.0
2017-Oct-12 02:59N 32°44' W 091°04'4 7.7
2017-Oct-12 02:30N 32°44' W 091°09'2 4.7
2017-Oct-12 01:59N 32°46' W 091°10'1 1.1
2017-Oct-12 01:28N 32°47' W 091°09'  

Dump ship's entire track history